Fort Pillow, Tennessee
Current Conditions -  °F | °C
As of 3:53 PM on Monday 20 Oct 2014 (Local Time) from KHKA Reporting Station
Scattered Clouds Scattered Clouds  
Wind Chill: 75°   Ceiling: Unl
Heat Index: 75°   Visibility: 10mi
Dew Point: 54°   Wind: 7mph
Humidity: 48%   Direction: 250°WSW
Pressure: 29.99"   Gusts: NA
Location:  35.7162°N, 89.6967°W
Report Text: KHKA 202053Z AUTO 25006KT 10SM SCT055 24/12 A2999 RMK AO2 SLP154 T02390122 56017
Loading
Personal Weather Stations






























Interactive Weather Map
Tropical Storm Tracking
New forecast layout! Learn more

10-Day Weather Forecast

Advertisements
Track Severe Weather on mobile